Time;durP1;ratioP1;P1;durP2;ratioP2;P2;SDS_P1;SDS_P2;PMS_P1;PMS_P2;Temp;Humidity;BMP_temperature;BMP_pressure;BME280_temperature;BME280_humidity;BME280_pressure;Samples;Min_cycle;Max_cycle;Signal;HPM_P1;HPM_P2
2021/01/25 00:02:09;;;;;;;9.48;4.47;;;0.80;99.90;;;;;;4909856;29;20111;-71
2021/01/25 00:04:35;;;;;;;8.70;4.55;;;0.80;99.90;;;;;;4912121;29;20077;-71
2021/01/25 00:07:00;;;;;;;6.05;3.30;;;0.70;99.90;;;;;;4894911;29;20032;-71
2021/01/25 00:09:26;;;;;;;10.38;4.75;;;0.70;99.90;;;;;;4894918;29;20041;-71
2021/01/25 00:11:51;;;;;;;10.95;4.60;;;0.70;99.90;;;;;;4911786;29;20029;-72
2021/01/25 00:14:17;;;;;;;9.43;4.28;;;0.60;99.90;;;;;;4911421;29;20079;-71
2021/01/25 00:16:42;;;;;;;11.57;4.28;;;0.60;99.90;;;;;;4911086;29;20036;-72
2021/01/25 00:19:08;;;;;;;10.18;4.32;;;0.60;99.90;;;;;;4911498;29;20073;-72
2021/01/25 00:21:34;;;;;;;9.25;4.05;;;0.60;99.90;;;;;;4911949;29;20036;-72
2021/01/25 00:23:59;;;;;;;7.30;3.58;;;0.60;99.90;;;;;;4910364;29;20036;-71
2021/01/25 00:26:25;;;;;;;5.82;3.45;;;0.60;99.90;;;;;;4911058;29;20037;-71
2021/01/25 00:28:50;;;;;;;7.32;2.65;;;0.60;99.90;;;;;;4911268;29;20467;-71
2021/01/25 00:31:16;;;;;;;9.32;3.28;;;0.60;99.90;;;;;;4910437;29;20065;-72
2021/01/25 00:33:42;;;;;;;8.07;3.97;;;0.60;99.90;;;;;;4910926;29;20070;-72
2021/01/25 00:36:07;;;;;;;6.68;3.33;;;0.60;99.90;;;;;;4911434;29;20032;-72
2021/01/25 00:38:33;;;;;;;7.03;3.45;;;0.50;99.90;;;;;;4910840;29;20087;-71
2021/01/25 00:40:58;;;;;;;4.22;2.55;;;0.60;99.90;;;;;;4911510;29;20035;-72
2021/01/25 00:43:24;;;;;;;6.15;3.17;;;0.50;99.90;;;;;;4911467;29;20080;-71
2021/01/25 00:45:49;;;;;;;3.90;2.85;;;0.50;99.90;;;;;;4911265;29;20025;-70
2021/01/25 00:48:15;;;;;;;3.90;2.67;;;0.60;99.90;;;;;;4911804;29;20052;-71
2021/01/25 00:50:41;;;;;;;6.10;2.95;;;0.60;99.90;;;;;;4911362;29;20025;-71
2021/01/25 00:53:07;;;;;;;5.20;2.80;;;0.60;99.90;;;;;;4911087;29;20035;-71
2021/01/25 00:55:33;;;;;;;5.38;2.80;;;0.60;99.90;;;;;;4911404;29;20037;-71
2021/01/25 00:57:58;;;;;;;6.13;2.72;;;0.60;99.90;;;;;;4911030;29;20054;-71
2021/01/25 01:00:24;;;;;;;3.83;2.33;;;0.60;99.90;;;;;;4910915;29;20031;-71
2021/01/25 01:02:49;;;;;;;4.93;2.63;;;0.50;99.90;;;;;;4910727;29;20032;-71
2021/01/25 01:05:15;;;;;;;3.08;2.20;;;0.50;99.90;;;;;;4911056;29;20370;-71
2021/01/25 01:07:41;;;;;;;4.97;2.05;;;0.50;99.90;;;;;;4910626;29;20051;-71
2021/01/25 01:10:07;;;;;;;7.32;2.25;;;0.50;99.90;;;;;;4909676;29;20039;-71
2021/01/25 01:12:33;;;;;;;3.33;1.75;;;0.60;99.90;;;;;;4910763;29;20029;-71
2021/01/25 01:14:58;;;;;;;3.50;2.40;;;0.60;99.90;;;;;;4910377;29;20448;-70
2021/01/25 01:17:24;;;;;;;4.25;2.30;;;0.60;99.90;;;;;;4910707;29;20037;-71
2021/01/25 01:19:49;;;;;;;2.33;2.05;;;0.60;99.90;;;;;;4910639;29;20029;-71
2021/01/25 01:22:15;;;;;;;7.85;3.08;;;0.60;99.90;;;;;;4910273;29;20028;-71
2021/01/25 01:24:41;;;;;;;3.70;2.60;;;0.60;99.90;;;;;;4910614;29;20033;-70
2021/01/25 01:27:06;;;;;;;6.03;2.70;;;0.60;99.90;;;;;;4910543;29;20025;-70
2021/01/25 01:29:32;;;;;;;6.35;3.45;;;0.60;99.90;;;;;;4910298;29;20126;-70
2021/01/25 01:31:58;;;;;;;4.88;3.10;;;0.60;99.90;;;;;;4910275;29;20033;-70
2021/01/25 01:34:23;;;;;;;5.97;2.70;;;0.60;99.90;;;;;;4910142;29;20092;-70
2021/01/25 01:36:49;;;;;;;4.28;3.00;;;0.60;99.90;;;;;;4910160;29;20040;-70
2021/01/25 01:39:14;;;;;;;9.95;6.28;;;0.60;99.90;;;;;;4910355;29;20048;-71
2021/01/25 01:41:40;;;;;;;13.48;4.88;;;0.60;99.90;;;;;;4910172;29;20044;-71
2021/01/25 01:44:10;;;;;;;4.20;2.92;;;0.50;99.90;;;;;;4910106;29;20433;-71
2021/01/25 01:46:38;;;;;;;11.25;4.55;;;0.50;99.90;;;;;;4910480;29;20056;-70
2021/01/25 01:49:04;;;;;;;5.97;3.58;;;0.50;99.90;;;;;;4909959;29;20029;-71
2021/01/25 01:51:30;;;;;;;8.43;5.13;;;0.50;99.90;;;;;;4910187;29;20029;-71
2021/01/25 01:53:57;;;;;;;8.23;4.75;;;0.50;99.90;;;;;;4910028;29;20083;-71
2021/01/25 01:56:23;;;;;;;11.02;5.03;;;0.50;99.90;;;;;;4909558;29;20029;-71
2021/01/25 01:58:49;;;;;;;7.18;3.90;;;0.50;99.90;;;;;;4909808;29;20045;-71
2021/01/25 02:01:14;;;;;;;11.55;3.92;;;0.50;99.90;;;;;;4909621;29;20034;-71
2021/01/25 02:03:40;;;;;;;7.75;4.15;;;0.40;99.90;;;;;;4909755;29;20037;-71
2021/01/25 02:06:07;;;;;;;7.85;3.40;;;0.40;99.90;;;;;;4910123;29;20036;-71
2021/01/25 02:08:36;;;;;;;10.32;4.28;;;0.40;99.90;;;;;;4909569;29;20028;-70
2021/01/25 02:11:03;;;;;;;4.70;3.25;;;0.40;99.90;;;;;;4909794;29;20052;-71
2021/01/25 02:13:30;;;;;;;6.53;4.55;;;0.40;99.90;;;;;;4909737;29;20036;-71
2021/01/25 02:15:59;;;;;;;11.68;3.92;;;0.40;99.90;;;;;;4909447;29;20028;-70
2021/01/25 02:18:25;;;;;;;9.00;4.38;;;0.40;99.90;;;;;;4909304;29;20044;-71
2021/01/25 02:20:51;;;;;;;12.48;5.25;;;0.40;99.90;;;;;;4909345;29;20032;-71
2021/01/25 02:23:44;;;;;;;8.55;4.38;;;0.40;99.90;;;;;;4909080;29;20084;-71
2021/01/25 02:26:47;;;;;;;9.32;4.18;;;0.40;99.90;;;;;;4909290;29;20397;-71
2021/01/25 02:29:13;;;;;;;10.82;4.72;;;0.40;99.90;;;;;;4909392;29;20029;-71
2021/01/25 02:31:39;;;;;;;11.73;4.03;;;0.40;99.90;;;;;;4909104;29;20039;-72
2021/01/25 02:34:06;;;;;;;8.85;4.22;;;0.40;99.90;;;;;;4908926;29;20052;-71
2021/01/25 02:36:33;;;;;;;11.40;5.07;;;0.40;99.90;;;;;;4909577;29;20032;-72
2021/01/25 02:39:01;;;;;;;8.85;4.22;;;0.40;99.90;;;;;;4891864;29;20111;-71
2021/01/25 02:41:28;;;;;;;6.32;4.13;;;0.40;99.90;;;;;;4911789;29;20020;-71
2021/01/25 02:43:55;;;;;;;10.50;5.03;;;0.40;99.90;;;;;;4923256;29;20721;-72
2021/01/25 02:46:23;;;;;;;12.48;5.03;;;0.40;99.90;;;;;;4925533;29;20034;-72
2021/01/25 02:48:49;;;;;;;10.07;5.07;;;0.40;99.90;;;;;;4928139;29;20024;-72
2021/01/25 02:51:15;;;;;;;12.55;5.03;;;0.40;99.90;;;;;;4928073;29;20381;-72
2021/01/25 02:53:40;;;;;;;25.65;5.07;;;0.40;99.90;;;;;;4928051;29;20065;-73
2021/01/25 02:56:07;;;;;;;20.35;5.60;;;0.40;99.90;;;;;;4911162;29;20024;-72
2021/01/25 02:58:34;;;;;;;10.52;4.78;;;0.40;99.90;;;;;;4927831;29;20121;-72
2021/01/25 03:01:00;;;;;;;15.02;5.07;;;0.40;99.90;;;;;;4927021;29;20032;-72
2021/01/25 03:03:28;;;;;;;17.10;5.13;;;0.40;99.90;;;;;;4927910;29;20059;-72
2021/01/25 03:05:56;;;;;;;13.07;5.50;;;0.40;99.90;;;;;;4927790;29;20032;-71
2021/01/25 03:08:23;;;;;;;9.07;5.00;;;0.40;99.90;;;;;;4941867;29;20038;-72
2021/01/25 03:10:48;;;;;;;18.65;5.57;;;0.40;99.90;;;;;;4927410;29;20039;-72
2021/01/25 03:13:14;;;;;;;8.80;4.65;;;0.40;99.90;;;;;;4927431;29;20028;-72
2021/01/25 03:15:42;;;;;;;9.13;4.15;;;0.40;99.90;;;;;;4927836;29;20044;-72
2021/01/25 03:18:09;;;;;;;14.82;6.07;;;0.30;99.90;;;;;;4927797;29;20052;-72
2021/01/25 03:20:34;;;;;;;10.68;4.90;;;0.30;99.90;;;;;;4927959;29;20036;-71
2021/01/25 03:23:00;;;;;;;10.52;4.95;;;0.30;99.90;;;;;;4927927;29;20033;-72
2021/01/25 03:25:25;;;;;;;13.05;5.47;;;0.20;99.90;;;;;;4927295;29;20036;-72
2021/01/25 03:27:51;;;;;;;8.30;4.88;;;0.20;99.90;;;;;;4927784;29;20036;-72
2021/01/25 03:30:17;;;;;;;36.63;6.47;;;0.20;99.90;;;;;;4927751;29;20028;-72
2021/01/25 03:32:44;;;;;;;11.15;5.18;;;0.10;99.90;;;;;;4925756;29;20088;-72
2021/01/25 03:35:11;;;;;;;12.13;6.07;;;0.10;99.90;;;;;;4927842;29;20052;-73
2021/01/25 03:37:38;;;;;;;17.23;6.30;;;0.10;99.90;;;;;;4931216;29;20072;-72
2021/01/25 03:40:08;;;;;;;13.07;5.95;;;0.10;99.90;;;;;;4930753;29;20040;-72
2021/01/25 03:42:34;;;;;;;10.95;6.20;;;0.10;99.90;;;;;;4931603;29;20500;-72
2021/01/25 03:45:00;;;;;;;9.23;4.35;;;0.10;99.90;;;;;;4930183;29;20051;-72
2021/01/25 03:47:26;;;;;;;12.90;6.32;;;0.10;99.90;;;;;;4930703;29;20035;-72
2021/01/25 03:49:51;;;;;;;10.35;5.57;;;0.10;99.90;;;;;;4931068;29;20038;-72
2021/01/25 03:52:17;;;;;;;7.97;5.43;;;0.10;99.90;;;;;;4930720;29;20043;-73
2021/01/25 03:54:42;;;;;;;12.95;6.05;;;0.10;99.90;;;;;;4930356;29;20028;-73
2021/01/25 03:57:08;;;;;;;11.18;5.25;;;0.10;99.90;;;;;;4930860;29;20037;-72
2021/01/25 03:59:34;;;;;;;14.93;6.70;;;0.10;99.90;;;;;;4929940;29;20028;-73
2021/01/25 04:01:59;;;;;;;9.30;5.15;;;0.10;99.90;;;;;;4912051;29;20040;-72
2021/01/25 04:04:25;;;;;;;10.13;5.43;;;0.10;99.90;;;;;;4930816;29;20034;-72
2021/01/25 04:06:51;;;;;;;11.98;5.38;;;0.10;99.90;;;;;;4930470;29;20028;-72
2021/01/25 04:09:16;;;;;;;9.55;4.57;;;0.10;99.90;;;;;;4930837;29;20051;-72
2021/01/25 04:11:43;;;;;;;11.43;4.95;;;0.10;99.90;;;;;;4930846;29;20024;-72
2021/01/25 04:14:09;;;;;;;12.68;6.50;;;0.10;99.90;;;;;;4930758;29;20028;-72
2021/01/25 04:16:36;;;;;;;15.02;6.70;;;0.00;99.90;;;;;;4930953;29;20489;-72
2021/01/25 04:19:03;;;;;;;14.93;6.70;;;0.00;99.90;;;;;;4930590;29;20036;-71
2021/01/25 04:21:29;;;;;;;15.45;6.35;;;0.00;99.90;;;;;;4930232;29;20512;-73
2021/01/25 04:23:55;;;;;;;13.93;7.13;;;0.00;99.90;;;;;;4930610;29;20028;-72
2021/01/25 04:26:21;;;;;;;14.65;6.43;;;0.00;99.90;;;;;;4930245;29;20028;-72
2021/01/25 04:28:46;;;;;;;14.60;5.65;;;0.00;99.90;;;;;;4930416;29;20032;-73
2021/01/25 04:31:13;;;;;;;14.25;5.72;;;0.00;99.90;;;;;;4930521;29;20024;-73
2021/01/25 04:33:39;;;;;;;12.52;5.82;;;0.00;99.90;;;;;;4929721;29;20056;-73
2021/01/25 04:36:05;;;;;;;14.63;6.97;;;0.00;99.90;;;;;;4930557;29;20042;-73
2021/01/25 04:38:31;;;;;;;12.93;6.35;;;0.00;99.90;;;;;;4913017;29;20413;-73
2021/01/25 04:40:57;;;;;;;15.65;6.70;;;0.00;99.90;;;;;;4929974;29;20040;-73
2021/01/25 04:43:24;;;;;;;15.30;8.30;;;0.00;99.90;;;;;;4930202;29;20105;-73
2021/01/25 04:45:49;;;;;;;15.73;7.45;;;0.00;99.90;;;;;;4930087;29;20032;-73
2021/01/25 04:48:16;;;;;;;10.95;6.40;;;0.00;99.90;;;;;;4929116;29;20083;-73
2021/01/25 04:50:42;;;;;;;19.83;8.43;;;0.00;99.90;;;;;;4930194;29;20038;-73
2021/01/25 04:53:07;;;;;;;18.42;8.93;;;0.00;99.90;;;;;;4930552;29;20063;-73
2021/01/25 04:55:35;;;;;;;17.17;7.53;;;0.00;99.90;;;;;;4929702;29;20035;-73
2021/01/25 04:58:02;;;;;;;21.75;8.27;;;0.00;99.90;;;;;;4912834;29;20048;-73
2021/01/25 05:00:28;;;;;;;17.83;8.88;;;0.00;99.90;;;;;;4930131;29;20043;-73
2021/01/25 05:02:54;;;;;;;16.80;7.30;;;0.00;99.90;;;;;;4929197;29;20033;-73
2021/01/25 05:05:20;;;;;;;14.57;7.95;;;0.00;99.90;;;;;;4928720;29;20069;-72
2021/01/25 05:07:46;;;;;;;15.82;8.20;;;-0.10;99.90;;;;;;4928886;29;20032;-73
2021/01/25 05:10:12;;;;;;;17.50;8.23;;;-0.10;99.90;;;;;;4929724;29;20033;-73
2021/01/25 05:12:45;;;;;;;15.20;7.50;;;-0.20;99.90;;;;;;4929244;29;20028;-74
2021/01/25 05:15:11;;;;;;;21.67;9.13;;;-0.20;99.90;;;;;;4929355;29;20035;-73
2021/01/25 05:17:37;;;;;;;17.05;9.00;;;-0.20;99.90;;;;;;4929371;29;20320;-73
2021/01/25 05:20:08;;;;;;;22.85;8.43;;;-0.20;99.90;;;;;;4929294;29;20084;-73
2021/01/25 05:22:38;;;;;;;15.63;7.40;;;-0.20;99.90;;;;;;4929547;29;20052;-73
2021/01/25 05:25:08;;;;;;;21.15;8.55;;;-0.30;99.90;;;;;;4912543;29;20385;-73
2021/01/25 05:27:33;;;;;;;17.05;7.10;;;-0.20;99.90;;;;;;4929671;29;20034;-73
2021/01/25 05:30:11;;;;;;;16.52;8.13;;;-0.30;99.90;;;;;;4929070;29;20067;-73
2021/01/25 05:33:03;;;;;;;17.00;8.43;;;-0.30;99.90;;;;;;4929065;29;20397;-73
2021/01/25 05:35:30;;;;;;;14.90;8.38;;;-0.30;99.90;;;;;;4927349;29;20048;-73
2021/01/25 05:38:07;;;;;;;16.27;7.30;;;-0.40;99.90;;;;;;4928803;29;20044;-71
2021/01/25 05:40:35;;;;;;;23.00;10.05;;;-0.40;99.90;;;;;;4929436;29;20028;-72
2021/01/25 05:43:01;;;;;;;15.27;7.93;;;-0.40;99.90;;;;;;4929200;29;20024;-72
2021/01/25 05:45:29;;;;;;;23.48;9.32;;;-0.40;99.90;;;;;;4928620;29;20115;-72
2021/01/25 05:47:57;;;;;;;24.80;9.13;;;-0.40;99.90;;;;;;4929046;29;20039;-72
2021/01/25 05:50:30;;;;;;;24.13;10.60;;;-0.40;99.90;;;;;;4929167;29;20088;-72
2021/01/25 05:52:58;;;;;;;18.98;8.05;;;-0.40;99.90;;;;;;4928599;29;20056;-72
2021/01/25 05:55:25;;;;;;;26.65;9.80;;;-0.40;99.90;;;;;;4928715;29;20039;-73
2021/01/25 05:57:50;;;;;;;20.52;8.23;;;-0.40;99.90;;;;;;4911721;29;20701;-72
2021/01/25 06:00:16;;;;;;;21.67;10.63;;;-0.40;99.90;;;;;;4926213;29;20088;-73
2021/01/25 06:02:46;;;;;;;17.67;9.57;;;-0.30;99.90;;;;;;4927533;29;20028;-73
2021/01/25 06:05:20;;;;;;;24.90;11.68;;;-0.40;99.90;;;;;;4928833;29;20024;-72
2021/01/25 06:07:49;;;;;;;20.55;9.45;;;-0.40;99.90;;;;;;4911232;29;20048;-73
2021/01/25 06:10:21;;;;;;;25.15;10.77;;;-0.40;99.90;;;;;;4928972;29;20039;-73
2021/01/25 06:12:52;;;;;;;21.45;9.70;;;-0.40;99.90;;;;;;4928629;29;20031;-72
2021/01/25 06:15:22;;;;;;;20.85;9.90;;;-0.40;99.90;;;;;;4928662;29;20036;-73
2021/01/25 06:17:48;;;;;;;22.88;10.07;;;-0.40;99.90;;;;;;4928480;29;20050;-73
2021/01/25 06:20:17;;;;;;;23.02;9.93;;;-0.40;99.90;;;;;;4928201;29;20028;-72
2021/01/25 06:22:45;;;;;;;21.67;11.60;;;-0.40;99.90;;;;;;4928315;29;20036;-73
2021/01/25 06:25:13;;;;;;;20.50;10.07;;;-0.50;99.90;;;;;;4928749;29;20024;-73
2021/01/25 06:27:44;;;;;;;22.63;10.50;;;-0.50;99.90;;;;;;4928505;29;20084;-74
2021/01/25 06:30:11;;;;;;;24.05;10.65;;;-0.50;99.90;;;;;;4911154;29;20039;-73
2021/01/25 06:32:43;;;;;;;20.17;10.07;;;-0.50;99.90;;;;;;4927334;29;20055;-73
2021/01/25 06:35:13;;;;;;;21.95;10.20;;;-0.50;99.90;;;;;;4927700;29;20028;-72
2021/01/25 06:37:39;;;;;;;29.30;13.45;;;-0.50;99.90;;;;;;4928218;29;20036;-73
2021/01/25 06:40:10;;;;;;;23.02;10.95;;;-0.50;99.90;;;;;;4928491;29;20071;-72
2021/01/25 06:42:39;;;;;;;23.48;10.73;;;-0.50;99.90;;;;;;4910850;29;20119;-72
2021/01/25 06:45:06;;;;;;;29.05;10.77;;;-0.50;99.90;;;;;;4928536;29;20205;-72
2021/01/25 06:47:35;;;;;;;22.75;9.95;;;-0.50;99.90;;;;;;4927896;29;20040;-72
2021/01/25 06:50:02;;;;;;;24.15;11.32;;;-0.50;99.90;;;;;;4910685;29;20455;-72
2021/01/25 06:52:35;;;;;;;21.80;11.70;;;-0.50;99.90;;;;;;4928106;29;20051;-73
2021/01/25 06:55:06;;;;;;;33.85;11.85;;;-0.50;99.90;;;;;;4928403;29;20028;-72
2021/01/25 06:57:36;;;;;;;18.95;9.07;;;-0.50;99.90;;;;;;4927611;29;20036;-72
2021/01/25 07:00:09;;;;;;;27.23;12.18;;;-0.50;99.90;;;;;;4928093;29;20124;-72
2021/01/25 07:02:49;;;;;;;23.27;10.48;;;-0.50;99.90;;;;;;4910845;29;20028;-72
2021/01/25 07:05:21;;;;;;;25.08;10.50;;;-0.50;99.90;;;;;;4927933;29;20042;-72
2021/01/25 07:07:46;;;;;;;33.42;12.00;;;-0.60;99.90;;;;;;4927858;29;20084;-73
2021/01/25 07:10:16;;;;;;;29.30;11.38;;;-0.60;99.90;;;;;;4926171;29;20028;-73
2021/01/25 07:12:42;;;;;;;20.02;11.48;;;-0.60;99.90;;;;;;4931747;29;20107;-72
2021/01/25 07:15:10;;;;;;;26.05;11.60;;;-0.60;99.90;;;;;;4931488;29;20032;-72
2021/01/25 07:17:35;;;;;;;23.98;10.27;;;-0.70;99.90;;;;;;4914077;29;20369;-73
2021/01/25 07:20:01;;;;;;;25.27;10.50;;;-0.70;99.90;;;;;;4931594;29;20501;-72
2021/01/25 07:22:29;;;;;;;21.85;11.48;;;-0.70;99.90;;;;;;4931567;29;20036;-71
2021/01/25 07:24:55;;;;;;;21.90;12.30;;;-0.70;99.90;;;;;;4914019;29;20488;-72
2021/01/25 07:27:22;;;;;;;20.52;9.88;;;-0.70;99.90;;;;;;4931310;29;20040;-73
2021/01/25 07:29:47;;;;;;;22.77;11.00;;;-0.70;99.90;;;;;;4918539;29;20056;-72
2021/01/25 07:32:13;;;;;;;17.65;9.25;;;-0.70;99.90;;;;;;4925475;29;20028;-72
2021/01/25 07:34:39;;;;;;;21.33;11.00;;;-0.70;99.90;;;;;;4911331;29;20052;-72
2021/01/25 07:37:04;;;;;;;29.23;12.20;;;-0.70;99.90;;;;;;4911975;29;20040;-71
2021/01/25 07:39:30;;;;;;;25.05;11.20;;;-0.70;99.90;;;;;;4911020;29;20051;-71
2021/01/25 07:41:56;;;;;;;17.77;8.68;;;-0.60;99.90;;;;;;4912200;29;20430;-72
2021/01/25 07:44:22;;;;;;;24.17;11.65;;;-0.60;99.90;;;;;;4911851;29;20037;-72
2021/01/25 07:46:49;;;;;;;26.80;12.07;;;-0.60;99.90;;;;;;4913023;29;20392;-71
2021/01/25 07:49:25;;;;;;;26.08;10.32;;;-0.60;99.90;;;;;;4912006;29;20108;-71
2021/01/25 07:51:51;;;;;;;23.05;10.43;;;-0.60;99.90;;;;;;4898765;29;20040;-70
2021/01/25 07:54:17;;;;;;;24.17;10.77;;;-0.50;99.90;;;;;;4917806;29;20115;-71
2021/01/25 07:56:42;;;;;;;23.92;10.18;;;-0.40;99.90;;;;;;4920425;29;20032;-71
2021/01/25 07:59:16;;;;;;;24.98;11.48;;;-0.30;99.90;;;;;;4911152;29;20065;-72
2021/01/25 08:02:01;;;;;;;23.08;12.18;;;-0.20;99.90;;;;;;4909034;29;20033;-72
2021/01/25 08:04:32;;;;;;;24.30;9.98;;;0.00;99.90;;;;;;4921066;29;20775;-71
2021/01/25 08:06:59;;;;;;;19.77;10.73;;;0.20;99.90;;;;;;4912535;29;20040;-71
2021/01/25 08:09:25;;;;;;;20.23;9.25;;;0.40;99.90;;;;;;4929763;29;20032;-71
2021/01/25 08:11:52;;;;;;;23.58;10.73;;;0.50;99.90;;;;;;4929871;29;20051;-71
2021/01/25 08:14:49;;;;;;;28.27;11.55;;;0.80;99.90;;;;;;4930218;29;20029;-71
2021/01/25 08:17:24;;;;;;;24.58;10.75;;;1.10;99.90;;;;;;4930526;29;20039;-72
2021/01/25 08:20:20;;;;;;;17.30;9.10;;;1.50;99.90;;;;;;4929361;29;20571;-71
2021/01/25 08:23:05;;;;;;;18.70;9.18;;;1.90;99.90;;;;;;4924382;29;20030;-72
2021/01/25 08:25:31;;;;;;;19.05;9.43;;;2.20;99.90;;;;;;4930079;29;20114;-71
2021/01/25 08:28:18;;;;;;;24.10;9.98;;;2.60;99.90;;;;;;4929625;29;20052;-71
2021/01/25 08:30:50;;;;;;;17.13;7.90;;;2.80;99.90;;;;;;4930032;29;20036;-71
2021/01/25 08:33:31;;;;;;;13.35;7.63;;;2.90;99.90;;;;;;4929353;29;20111;-72
2021/01/25 08:35:59;;;;;;;22.23;8.73;;;3.20;99.90;;;;;;4929728;29;20071;-71
2021/01/25 08:38:40;;;;;;;18.95;8.95;;;3.30;99.90;;;;;;4929577;29;20044;-71
2021/01/25 08:41:28;;;;;;;12.90;7.13;;;3.50;99.90;;;;;;4929529;29;20377;-72
2021/01/25 08:44:12;;;;;;;21.95;8.63;;;3.30;99.90;;;;;;4929692;29;20043;-72
2021/01/25 08:46:39;;;;;;;19.98;8.63;;;3.20;99.90;;;;;;4929772;29;20493;-72
2021/01/25 08:49:15;;;;;;;19.42;9.15;;;3.10;99.90;;;;;;4929188;29;20127;-71
2021/01/25 08:52:03;;;;;;;14.90;7.22;;;3.10;99.90;;;;;;4929574;29;20024;-73
2021/01/25 08:54:34;;;;;;;18.50;9.43;;;3.00;99.90;;;;;;4926470;29;20076;-72
2021/01/25 08:57:01;;;;;;;19.08;9.43;;;2.80;99.90;;;;;;4910274;29;20033;-72
2021/01/25 08:59:39;;;;;;;25.17;9.30;;;2.70;99.90;;;;;;4919495;29;20408;-72
2021/01/25 09:02:22;;;;;;;16.80;8.20;;;2.80;99.90;;;;;;4912032;29;20491;-71
2021/01/25 09:04:53;;;;;;;16.35;7.95;;;2.90;99.90;;;;;;4929117;29;20035;-72
2021/01/25 09:07:22;;;;;;;17.70;8.07;;;3.00;99.90;;;;;;4911946;29;20040;-71
2021/01/25 09:09:48;;;;;;;22.50;10.25;;;3.00;99.90;;;;;;4929515;29;20037;-71
2021/01/25 09:12:18;;;;;;;18.98;9.40;;;3.10;99.90;;;;;;4929304;29;20039;-71
2021/01/25 09:14:44;;;;;;;19.45;9.55;;;3.10;99.90;;;;;;4929493;29;20067;-72
2021/01/25 09:17:12;;;;;;;16.40;7.30;;;3.20;99.90;;;;;;4912347;29;20028;-72
2021/01/25 09:19:39;;;;;;;21.65;9.05;;;3.30;99.90;;;;;;4929568;29;20091;-72
2021/01/25 09:22:07;;;;;;;16.77;8.05;;;3.30;99.90;;;;;;4929266;29;20442;-70
2021/01/25 09:24:33;;;;;;;25.17;9.57;;;3.30;99.90;;;;;;4929672;29;20042;-70
2021/01/25 09:26:58;;;;;;;17.00;8.27;;;3.50;99.90;;;;;;4929107;29;20131;-71
2021/01/25 09:29:24;;;;;;;17.95;8.75;;;3.50;99.90;;;;;;4928980;29;20381;-72
2021/01/25 09:31:50;;;;;;;15.30;9.05;;;3.60;99.90;;;;;;4929162;29;20101;-71
2021/01/25 09:34:15;;;;;;;14.82;7.85;;;3.60;99.90;;;;;;4928623;29;20052;-72
2021/01/25 09:36:41;;;;;;;24.73;6.85;;;3.80;99.90;;;;;;4928004;29;20036;-72
2021/01/25 09:39:08;;;;;;;16.33;8.35;;;3.70;99.90;;;;;;4929195;29;20036;-71
2021/01/25 09:41:35;;;;;;;27.63;10.32;;;3.80;99.90;;;;;;4928833;29;20028;-71
2021/01/25 09:44:02;;;;;;;21.17;8.75;;;3.80;99.90;;;;;;4928469;29;20039;-71
2021/01/25 09:46:27;;;;;;;19.50;8.18;;;3.90;99.90;;;;;;4928961;29;20058;-70
2021/01/25 09:48:53;;;;;;;17.23;8.52;;;3.90;99.90;;;;;;4928841;29;20477;-72
2021/01/25 09:51:19;;;;;;;18.80;8.68;;;4.10;99.90;;;;;;4928662;29;20064;-71
2021/01/25 09:53:45;;;;;;;14.15;7.50;;;4.30;99.90;;;;;;4928837;29;20032;-73
2021/01/25 09:56:10;;;;;;;15.32;7.63;;;4.70;99.90;;;;;;4928502;29;20036;-72
2021/01/25 09:58:36;;;;;;;17.17;8.57;;;4.90;99.90;;;;;;4928893;29;20059;-70
2021/01/25 10:01:03;;;;;;;15.13;7.95;;;4.80;99.90;;;;;;4928771;29;20039;-71
2021/01/25 10:03:29;;;;;;;30.02;9.05;;;4.90;99.90;;;;;;4911320;29;20119;-72
2021/01/25 10:05:55;;;;;;;16.35;7.20;;;5.20;99.90;;;;;;4928512;29;20029;-71
2021/01/25 10:08:20;;;;;;;14.55;7.63;;;5.30;99.90;;;;;;4928254;29;20028;-71
2021/01/25 10:10:46;;;;;;;14.90;6.95;;;5.20;99.90;;;;;;4928075;29;20719;-72
2021/01/25 10:13:13;;;;;;;15.50;8.60;;;5.10;99.90;;;;;;4928442;29;20120;-72
2021/01/25 10:15:38;;;;;;;12.57;6.57;;;4.80;99.90;;;;;;4928542;29;20028;-71
2021/01/25 10:18:04;;;;;;;25.13;9.05;;;4.70;99.90;;;;;;4927510;29;20044;-71
2021/01/25 10:20:30;;;;;;;14.30;7.18;;;4.70;99.90;;;;;;4928376;29;20032;-70
2021/01/25 10:23:03;;;;;;;12.80;6.70;;;4.90;99.90;;;;;;4928321;29;20067;-72
2021/01/25 10:25:39;;;;;;;13.75;7.10;;;5.40;99.90;;;;;;4927729;29;20098;-74
2021/01/25 10:28:05;;;;;;;13.10;7.30;;;6.00;99.90;;;;;;4910024;29;20437;-71
2021/01/25 10:30:33;;;;;;;18.15;8.80;;;6.00;99.90;;;;;;4927367;29;20060;-71
2021/01/25 10:32:59;;;;;;;13.15;7.68;;;5.80;99.90;;;;;;4927300;29;20060;-71
2021/01/25 10:35:26;;;;;;;19.42;8.02;;;6.00;99.90;;;;;;4928021;29;20032;-71
2021/01/25 10:37:52;;;;;;;13.90;6.22;;;6.20;99.90;;;;;;4927621;29;20051;-70
2021/01/25 10:40:19;;;;;;;10.35;5.95;;;6.20;99.90;;;;;;4927358;29;20025;-70
2021/01/25 10:42:45;;;;;;;14.13;6.68;;;6.10;99.90;;;;;;4927325;29;20024;-70
2021/01/25 10:45:12;;;;;;;13.13;6.60;;;5.90;99.90;;;;;;4927106;29;20056;-71
2021/01/25 10:47:38;;;;;;;12.90;6.63;;;5.90;99.90;;;;;;4927857;29;20029;-70
2021/01/25 10:50:06;;;;;;;11.38;6.32;;;5.90;99.90;;;;;;4927951;29;20040;-70
2021/01/25 10:52:33;;;;;;;13.13;6.63;;;5.90;99.90;;;;;;4927535;29;20031;-70
2021/01/25 10:54:58;;;;;;;12.70;6.38;;;6.20;99.90;;;;;;4927872;29;20035;-70
2021/01/25 10:57:24;;;;;;;12.88;6.18;;;6.70;99.90;;;;;;4927913;29;20372;-71
2021/01/25 10:59:49;;;;;;;10.88;5.65;;;7.10;99.90;;;;;;4927661;29;20036;-71
2021/01/25 11:02:17;;;;;;;10.00;5.43;;;7.30;99.90;;;;;;4942610;29;20127;-70
2021/01/25 11:04:44;;;;;;;9.95;5.43;;;7.80;99.90;;;;;;4927833;29;20032;-70
2021/01/25 11:07:10;;;;;;;11.07;5.35;;;8.10;99.90;;;;;;4928227;29;20039;-70
2021/01/25 11:09:37;;;;;;;12.77;4.68;;;8.80;99.90;;;;;;4933906;29;20036;-70
2021/01/25 11:12:03;;;;;;;7.90;4.70;;;9.20;99.90;;;;;;4921916;29;20052;-69
2021/01/25 11:14:28;;;;;;;12.57;5.07;;;9.70;99.90;;;;;;4908925;29;20119;-71
2021/01/25 11:16:54;;;;;;;10.30;5.18;;;9.70;99.90;;;;;;4908481;29;20029;-71
2021/01/25 11:19:20;;;;;;;11.18;5.95;;;9.50;99.90;;;;;;4906539;29;20064;-70
2021/01/25 11:21:46;;;;;;;11.00;6.07;;;9.20;99.90;;;;;;4906973;29;20383;-70
2021/01/25 11:24:11;;;;;;;9.88;5.50;;;9.70;99.90;;;;;;4920482;29;20059;-71
2021/01/25 11:26:39;;;;;;;8.73;4.88;;;9.70;99.90;;;;;;4925600;29;20032;-71
2021/01/25 11:29:06;;;;;;;10.32;4.97;;;9.50;99.90;;;;;;4925417;29;20024;-71
2021/01/25 11:31:32;;;;;;;9.77;5.22;;;9.40;99.90;;;;;;4925357;29;20029;-70
2021/01/25 11:33:58;;;;;;;11.02;5.32;;;9.40;99.90;;;;;;4924213;29;20112;-71
2021/01/25 11:36:23;;;;;;;11.70;5.95;;;9.50;99.90;;;;;;4926136;29;20060;-69
2021/01/25 11:38:52;;;;;;;10.88;5.72;;;9.70;99.90;;;;;;4925795;29;20052;-72
2021/01/25 11:41:18;;;;;;;10.13;5.72;;;9.20;99.90;;;;;;4925094;29;20035;-71
2021/01/25 11:43:46;;;;;;;9.48;4.40;;;8.70;99.90;;;;;;4926598;29;20032;-71
2021/01/25 11:46:12;;;;;;;10.90;4.93;;;8.20;99.90;;;;;;4926790;29;20028;-71
2021/01/25 11:48:38;;;;;;;10.57;4.95;;;7.60;99.90;;;;;;4925660;29;20059;-71
2021/01/25 11:51:04;;;;;;;9.80;5.53;;;7.30;99.90;;;;;;4926176;29;20028;-71
2021/01/25 11:53:31;;;;;;;8.90;5.03;;;6.80;99.90;;;;;;4926049;29;20036;-70
2021/01/25 11:55:58;;;;;;;10.95;6.03;;;6.60;99.90;;;;;;4924259;29;20024;-71
2021/01/25 11:58:23;;;;;;;11.15;6.15;;;6.60;99.90;;;;;;4927890;29;20091;-70
2021/01/25 12:00:49;;;;;;;8.63;4.28;;;7.10;99.90;;;;;;4943235;29;20028;-70
2021/01/25 12:03:16;;;;;;;8.57;4.38;;;7.50;99.90;;;;;;4929522;29;20047;-71
2021/01/25 12:05:42;;;;;;;12.85;4.00;;;7.80;99.90;;;;;;4930018;29;20020;-71
2021/01/25 12:08:11;;;;;;;9.95;4.47;;;8.50;99.90;;;;;;4929575;29;20028;-71
2021/01/25 12:10:39;;;;;;;9.07;3.58;;;8.80;99.90;;;;;;4929747;29;20120;-70
2021/01/25 12:13:04;;;;;;;7.55;3.30;;;8.80;99.90;;;;;;4929926;29;20028;-70
2021/01/25 12:15:30;;;;;;;6.53;3.08;;;8.70;99.90;;;;;;4929155;29;20035;-71
2021/01/25 12:17:56;;;;;;;8.15;3.40;;;8.70;99.90;;;;;;4929229;29;20114;-71
2021/01/25 12:20:22;;;;;;;7.28;3.67;;;9.10;99.90;;;;;;4943741;29;20028;-70
2021/01/25 12:22:47;;;;;;;7.82;4.72;;;10.00;99.90;;;;;;4928177;29;20036;-72
2021/01/25 12:25:14;;;;;;;8.93;3.70;;;10.50;99.90;;;;;;4928598;29;20033;-72
2021/01/25 12:27:39;;;;;;;6.45;3.97;;;10.70;99.90;;;;;;4928990;29;20032;-71
2021/01/25 12:30:06;;;;;;;4.93;2.72;;;11.30;99.90;;;;;;4927994;29;20090;-71
2021/01/25 12:32:33;;;;;;;11.60;4.28;;;11.50;99.90;;;;;;4928062;29;20056;-70
2021/01/25 12:34:59;;;;;;;7.25;3.45;;;11.90;99.90;;;;;;4929067;29;20063;-70
2021/01/25 12:37:25;;;;;;;5.85;3.25;;;;;;;;;;4927337;29;20024;-71
2021/01/25 12:39:51;;;;;;;3.95;2.28;;;;;;;;;;4928410;29;20087;-71
2021/01/25 12:42:16;;;;;;;6.25;2.70;;;12.30;99.90;;;;;;4929211;29;20397;-72
2021/01/25 12:44:43;;;;;;;5.88;2.47;;;12.80;99.90;;;;;;4928797;29;20051;-71
2021/01/25 12:47:10;;;;;;;6.68;2.88;;;12.30;99.90;;;;;;4928986;29;20035;-72
2021/01/25 12:49:37;;;;;;;4.85;3.30;;;12.60;99.90;;;;;;4929563;29;20036;-71